Time;durP1;ratioP1;P1;durP2;ratioP2;P2;SDS_P1;SDS_P2;PMS_P1;PMS_P2;Temp;Humidity;BMP_temperature;BMP_pressure;BME280_temperature;BME280_humidity;BME280_pressure;Samples;Min_cycle;Max_cycle;Signal;HPM_P1;HPM_P2
2023/12/02 00:01:24;;;;;;;48.60;27.70;;;;;;;3.22;79.92;100062.60;107655;1254;108944;-61
2023/12/02 00:03:53;;;;;;;44.90;25.80;;;;;;;3.31;79.75;100073.51;107536;1254;109311;-61
2023/12/02 00:06:21;;;;;;;52.00;27.70;;;;;;;3.39;79.59;100085.20;107477;1253;99653;-62
2023/12/02 00:08:49;;;;;;;48.40;26.60;;;;;;;3.38;79.19;100080.41;107613;1251;99173;-61
2023/12/02 00:11:18;;;;;;;47.00;26.50;;;;;;;3.40;79.00;100078.38;107633;1252;113450;-62
2023/12/02 00:13:47;;;;;;;47.60;27.20;;;;;;;3.39;79.05;100070.83;107631;1252;109836;-61
2023/12/02 00:16:15;;;;;;;50.10;26.90;;;;;;;3.35;78.79;100065.48;107633;1251;106794;-61
2023/12/02 00:18:44;;;;;;;45.70;26.90;;;;;;;3.38;79.02;100062.02;107575;1251;99278;-61
2023/12/02 00:21:12;;;;;;;47.10;26.50;;;;;;;3.43;78.96;100075.49;107654;1251;99131;-61
2023/12/02 00:23:40;;;;;;;46.40;25.20;;;;;;;3.48;79.27;100081.39;107585;1251;112265;-60
2023/12/02 00:26:10;;;;;;;50.20;26.80;;;;;;;3.54;79.10;100063.95;107569;1255;109514;-60
2023/12/02 00:28:39;;;;;;;53.60;28.60;;;;;;;3.63;79.15;100058.53;107578;1251;108014;-61
2023/12/02 00:31:07;;;;;;;49.70;27.10;;;;;;;3.74;79.19;100065.38;107594;1251;99200;-60
2023/12/02 00:33:36;;;;;;;49.40;27.10;;;;;;;3.80;78.79;100071.34;107602;1253;99744;-61
2023/12/02 00:36:05;;;;;;;53.40;29.20;;;;;;;3.81;78.41;100076.08;107600;1251;113556;-65
2023/12/02 00:38:33;;;;;;;46.60;26.60;;;;;;;3.83;78.18;100084.76;107616;1253;110062;-61
2023/12/02 00:41:01;;;;;;;51.40;27.80;;;;;;;3.76;77.71;100082.77;107604;1253;107684;-61
2023/12/02 00:43:30;;;;;;;49.70;27.70;;;;;;;3.70;77.60;100087.27;107525;1253;99160;-62
2023/12/02 00:45:58;;;;;;;49.30;28.40;;;;;;;3.68;77.82;100071.33;107661;1253;99186;-60
2023/12/02 00:48:27;;;;;;;45.60;25.80;;;;;;;3.65;77.55;100060.67;107698;1254;112788;-60
2023/12/02 00:50:55;;;;;;;54.40;28.50;;;;;;;3.64;77.59;100052.82;107609;1251;109248;-61
2023/12/02 00:53:24;;;;;;;49.40;28.10;;;;;;;3.60;77.53;100070.81;107573;1253;108303;-61
2023/12/02 00:55:52;;;;;;;53.80;29.00;;;;;;;3.57;77.96;100081.26;107645;1252;99276;-61
2023/12/02 00:58:21;;;;;;;53.30;28.50;;;;;;;3.46;78.65;100072.67;107583;1252;99034;-60
2023/12/02 01:01:03;;;;;;;52.70;27.40;;;;;;;3.33;78.81;100066.82;107613;1251;113332;-61
2023/12/02 01:03:31;;;;;;;55.70;29.40;;;;;;;3.30;78.88;100063.62;107462;1253;108817;-61
2023/12/02 01:05:59;;;;;;;57.90;30.80;;;;;;;3.29;78.72;100047.77;107664;1251;108598;-61
2023/12/02 01:08:28;;;;;;;62.00;30.00;;;;;;;3.28;78.69;100049.63;107665;1251;99172;-61
2023/12/02 01:10:56;;;;;;;57.70;30.00;;;;;;;3.29;78.77;100069.02;107620;1250;99733;-59
2023/12/02 01:13:25;;;;;;;61.10;29.80;;;;;;;3.28;78.65;100063.22;107561;1251;113224;-60
2023/12/02 01:15:53;;;;;;;52.40;28.00;;;;;;;3.28;78.90;100069.80;107622;1251;109851;-62
2023/12/02 01:18:21;;;;;;;60.30;31.50;;;;;;;3.30;78.84;100047.70;107564;1255;107448;-61
2023/12/02 01:20:50;;;;;;;55.00;28.10;;;;;;;3.33;78.95;100024.08;107574;1252;99051;-62
2023/12/02 01:23:18;;;;;;;53.20;29.90;;;;;;;3.36;79.01;100024.56;107611;1251;99186;-61
2023/12/02 01:25:46;;;;;;;49.90;27.70;;;;;;;3.42;79.17;100020.44;107486;1256;112482;-61
2023/12/02 01:28:15;;;;;;;53.40;28.00;;;;;;;3.48;79.38;100014.70;107684;1251;110055;-62
2023/12/02 01:30:43;;;;;;;55.10;28.00;;;;;;;3.49;79.25;100029.53;107602;1251;108116;-60
2023/12/02 01:33:12;;;;;;;55.20;27.90;;;;;;;3.51;79.26;100031.69;107568;1251;99170;-61
2023/12/02 01:35:40;;;;;;;58.20;27.40;;;;;;;3.52;80.09;100029.67;107634;1251;99175;-61
2023/12/02 01:38:08;;;;;;;55.80;27.90;;;;;;;3.52;79.96;100030.55;107615;1251;113298;-61
2023/12/02 01:40:37;;;;;;;56.50;28.40;;;;;;;3.52;79.66;100033.20;107650;1251;109685;-61
2023/12/02 01:43:06;;;;;;;55.60;27.40;;;;;;;3.52;79.72;100024.91;107635;1250;108504;-62
2023/12/02 01:45:34;;;;;;;57.30;27.50;;;;;;;3.52;79.86;100016.55;107640;1250;99191;-61
2023/12/02 01:48:04;;;;;;;59.90;29.10;;;;;;;3.54;80.15;100034.14;107620;1254;99073;-61
2023/12/02 01:50:33;;;;;;;56.50;27.90;;;;;;;3.53;79.87;100048.61;107589;1251;112219;-61
2023/12/02 01:53:02;;;;;;;56.50;29.50;;;;;;;3.55;80.06;100026.63;107597;1251;108825;-61
2023/12/02 01:55:30;;;;;;;49.40;27.70;;;;;;;3.61;80.20;100013.46;107589;1251;108291;-61
2023/12/02 01:57:59;;;;;;;54.90;29.70;;;;;;;3.67;80.33;100024.15;107593;1251;99302;-60
2023/12/02 02:00:27;;;;;;;54.70;27.00;;;;;;;3.69;79.98;100016.23;107643;1251;99054;-61
2023/12/02 02:02:56;;;;;;;55.60;28.40;;;;;;;3.73;80.29;100019.35;107544;1251;113174;-61
2023/12/02 02:05:25;;;;;;;58.50;28.00;;;;;;;3.72;79.58;100012.66;107610;1251;109747;-60
2023/12/02 02:07:54;;;;;;;54.80;27.20;;;;;;;3.73;79.76;100017.00;107572;1254;106897;-60
2023/12/02 02:10:22;;;;;;;56.20;28.20;;;;;;;3.76;80.00;100025.85;107595;1253;99260;-61
2023/12/02 02:12:51;;;;;;;56.70;28.40;;;;;;;3.76;79.80;100033.13;107433;1251;99100;-59
2023/12/02 02:15:19;;;;;;;53.30;27.50;;;;;;;3.74;79.83;100036.75;107590;1251;113182;-63
2023/12/02 02:17:47;;;;;;;56.50;28.30;;;;;;;3.69;79.14;100041.79;107471;1253;108927;-61
2023/12/02 02:20:16;;;;;;;61.60;29.30;;;;;;;3.66;79.40;100039.19;107423;1252;108561;-62
2023/12/02 02:22:44;;;;;;;60.80;30.20;;;;;;;3.66;79.82;100023.88;107560;1253;99196;-61
2023/12/02 02:25:12;;;;;;;62.20;29.30;;;;;;;3.68;79.71;100029.41;107479;1253;99102;-61
2023/12/02 02:27:41;;;;;;;61.40;31.00;;;;;;;3.69;79.91;100030.77;107479;1257;112225;-61
2023/12/02 02:30:10;;;;;;;57.10;29.00;;;;;;;3.68;80.07;100036.56;107547;1252;109826;-61
2023/12/02 02:32:38;;;;;;;64.30;29.40;;;;;;;3.70;79.96;100025.91;107555;1252;107220;-63
2023/12/02 02:35:07;;;;;;;66.80;29.70;;;;;;;3.71;80.59;100012.02;107412;1253;99295;-61
2023/12/02 02:37:35;;;;;;;58.30;26.90;;;;;;;3.68;80.55;100002.83;107598;1254;99068;-60
2023/12/02 02:40:05;;;;;;;58.50;29.70;;;;;;;3.65;80.76;99997.17;107583;1255;114477;-62
2023/12/02 02:42:33;;;;;;;58.60;29.50;;;;;;;3.64;80.90;100000.29;107554;1253;109334;-62
2023/12/02 02:45:02;;;;;;;57.30;27.60;;;;;;;3.60;80.85;100012.59;107395;1257;108307;-61
2023/12/02 02:47:31;;;;;;;58.30;28.90;;;;;;;3.58;80.87;100021.63;107570;1251;99282;-60
2023/12/02 02:49:59;;;;;;;60.10;29.20;;;;;;;3.57;80.94;100025.06;107546;1251;99818;-61
2023/12/02 02:52:28;;;;;;;61.90;28.80;;;;;;;3.57;80.75;100031.46;107542;1253;113508;-62
2023/12/02 02:54:58;;;;;;;57.30;31.50;;;;;;;3.59;81.02;100022.42;107610;1253;109393;-62
2023/12/02 02:57:26;;;;;;;60.00;28.30;;;;;;;3.60;81.24;100010.66;107588;1253;108139;-60
2023/12/02 02:59:55;;;;;;;60.90;29.50;;;;;;;3.61;81.03;100013.28;107548;1255;99287;-60
2023/12/02 03:02:23;;;;;;;49.20;25.90;;;;;;;3.59;81.35;100019.77;107602;1253;99852;-61
2023/12/02 03:04:52;;;;;;;53.40;27.40;;;;;;;3.57;81.13;100020.45;107502;1253;112839;-61
2023/12/02 03:07:20;;;;;;;53.10;26.90;;;;;;;3.58;81.24;100006.41;107566;1253;110294;-61
2023/12/02 03:09:48;;;;;;;55.10;26.90;;;;;;;3.58;81.22;100012.42;107589;1254;108325;-61
2023/12/02 03:12:16;;;;;;;55.50;26.60;;;;;;;3.61;81.20;100022.81;107566;1251;99067;-61
2023/12/02 03:14:45;;;;;;;60.50;27.80;;;;;;;3.65;81.54;100027.88;107596;1254;99148;-60
2023/12/02 03:17:13;;;;;;;53.00;25.70;;;;;;;3.66;81.46;100023.73;107601;1251;113075;-62
2023/12/02 03:19:41;;;;;;;57.60;26.10;;;;;;;3.65;81.35;100017.95;107606;1251;109704;-63
2023/12/02 03:22:10;;;;;;;56.70;25.60;;;;;;;3.64;81.54;100025.45;107544;1254;107395;-61
2023/12/02 03:24:39;;;;;;;51.20;25.10;;;;;;;3.62;81.51;100013.02;107593;1254;99311;-62
2023/12/02 03:27:08;;;;;;;55.20;26.30;;;;;;;3.58;81.38;99994.02;107576;1254;99071;-63
2023/12/02 03:29:36;;;;;;;54.30;25.10;;;;;;;3.54;81.31;99993.18;107593;1251;113674;-63
2023/12/02 03:32:05;;;;;;;48.10;24.40;;;;;;;3.56;81.49;100002.41;107579;1254;109980;-61
2023/12/02 03:34:33;;;;;;;55.40;26.60;;;;;;;3.53;81.39;100006.35;107564;1251;108153;-61
2023/12/02 03:37:02;;;;;;;48.50;25.60;;;;;;;3.51;81.52;100009.70;107565;1251;99172;-60
2023/12/02 03:39:30;;;;;;;62.40;27.30;;;;;;;3.54;81.54;100002.42;107622;1251;99169;-62
2023/12/02 03:41:59;;;;;;;56.20;25.70;;;;;;;3.58;81.64;99987.77;107594;1254;113090;-61
2023/12/02 03:44:27;;;;;;;54.40;27.80;;;;;;;3.62;81.74;99974.71;107618;1251;109648;-61
2023/12/02 03:46:56;;;;;;;53.00;26.00;;;;;;;3.64;81.62;99970.33;107583;1254;107008;-61
2023/12/02 03:49:24;;;;;;;50.70;25.40;;;;;;;3.63;81.48;99967.00;107602;1254;99074;-59
2023/12/02 03:51:53;;;;;;;53.20;25.20;;;;;;;3.62;81.33;99967.96;107564;1251;99714;-60
2023/12/02 03:54:21;;;;;;;54.40;26.60;;;;;;;3.63;81.25;99976.29;107590;1251;112554;-60
2023/12/02 03:56:50;;;;;;;48.50;25.50;;;;;;;3.61;80.98;99986.85;107581;1251;110261;-62
2023/12/02 03:59:19;;;;;;;60.10;27.60;;;;;;;3.60;81.10;99988.13;107625;1251;109390;-61
2023/12/02 04:01:48;;;;;;;55.90;25.90;;;;;;;3.63;81.27;99974.84;107626;1251;99058;-60
2023/12/02 04:04:18;;;;;;;54.00;27.20;;;;;;;3.66;81.31;99978.73;107608;1255;99170;-60
2023/12/02 04:06:46;;;;;;;47.60;24.60;;;;;;;3.69;81.10;99999.08;107651;1251;111783;-61
2023/12/02 04:09:16;;;;;;;53.60;26.90;;;;;;;3.69;81.08;100008.26;107527;1253;110067;-62
2023/12/02 04:11:48;;;;;;;56.50;28.70;;;;;;;3.64;80.87;100005.41;107551;1255;107615;-62
2023/12/02 04:14:16;;;;;;;53.10;26.70;;;;;;;3.62;80.84;100001.85;107525;1252;99274;-64
2023/12/02 04:16:44;;;;;;;53.80;28.30;;;;;;;3.60;81.07;100001.42;107574;1253;99072;-60
2023/12/02 04:19:13;;;;;;;57.80;29.10;;;;;;;3.58;80.95;99998.60;107598;1252;112442;-61
2023/12/02 04:21:44;;;;;;;56.00;27.40;;;;;;;3.56;80.84;99989.50;107542;1253;108382;-62
2023/12/02 04:24:12;;;;;;;54.80;28.20;;;;;;;3.57;81.00;99981.78;107587;1252;106899;-61
2023/12/02 04:26:41;;;;;;;70.30;28.80;;;;;;;3.59;80.92;99974.60;107561;1252;99202;-61
2023/12/02 04:29:09;;;;;;;59.80;29.80;;;;;;;3.62;81.33;99983.40;107617;1253;99723;-61
2023/12/02 04:31:37;;;;;;;58.20;27.80;;;;;;;3.68;81.16;99995.91;107559;1253;113066;-60
2023/12/02 04:34:06;;;;;;;72.90;30.40;;;;;;;3.69;80.90;100006.49;107539;1253;109251;-62
2023/12/02 04:36:34;;;;;;;58.30;28.20;;;;;;;3.73;81.16;100005.84;107551;1253;107729;-60
2023/12/02 04:39:04;;;;;;;59.10;29.80;;;;;;;3.81;81.22;99994.30;107468;1252;99196;-60
2023/12/02 04:41:32;;;;;;;61.10;28.70;;;;;;;3.86;81.12;99995.67;107573;1251;99070;-60
2023/12/02 04:44:01;;;;;;;58.90;30.40;;;;;;;3.90;80.90;99996.95;107556;1253;112060;-62
2023/12/02 04:46:29;;;;;;;61.10;30.00;;;;;;;3.94;81.14;99992.97;107557;1253;110467;-60
2023/12/02 04:48:58;;;;;;;61.00;30.30;;;;;;;3.99;80.99;99979.49;107557;1253;107814;-60
2023/12/02 04:51:26;;;;;;;48.30;26.60;;;;;;;4.02;80.74;99981.55;107535;1253;99179;-60
2023/12/02 04:53:55;;;;;;;51.60;27.60;;;;;;;4.07;80.71;99987.95;107567;1252;99092;-61
2023/12/02 04:56:23;;;;;;;48.00;27.10;;;;;;;4.11;80.50;99993.50;107530;1252;113160;-61
2023/12/02 04:58:52;;;;;;;47.10;25.50;;;;;;;4.12;80.38;99989.16;107563;1253;109547;-62
2023/12/02 05:01:20;;;;;;;49.30;26.30;;;;;;;4.11;80.04;99983.42;107523;1253;107775;-61
2023/12/02 05:03:49;;;;;;;51.60;27.80;;;;;;;4.12;79.93;99974.31;107577;1253;99262;-61
2023/12/02 05:06:17;;;;;;;52.90;27.80;;;;;;;4.09;79.69;99969.02;107579;1253;99823;-60
2023/12/02 05:08:46;;;;;;;54.20;28.50;;;;;;;4.06;79.53;99974.88;107570;1251;112579;-61
2023/12/02 05:11:20;;;;;;;54.70;28.80;;;;;;;4.02;79.54;99970.36;107596;1254;109852;-61
2023/12/02 05:13:50;;;;;;;54.90;28.60;;;;;;;3.99;79.27;99973.08;107613;1252;108767;-61
2023/12/02 05:16:19;;;;;;;53.50;27.80;;;;;;;3.95;79.07;99977.10;107615;1251;99193;-62
2023/12/02 05:18:48;;;;;;;48.80;26.10;;;;;;;3.90;78.96;99982.64;107660;1251;100840;-61
2023/12/02 05:21:18;;;;;;;60.10;28.40;;;;;;;3.85;79.00;99990.60;107619;1251;113075;-61
2023/12/02 05:23:47;;;;;;;49.70;27.30;;;;;;;3.83;78.72;99992.02;107574;1251;109857;-62
2023/12/02 05:26:15;;;;;;;52.60;28.00;;;;;;;3.77;78.73;99984.07;107582;1253;108100;-63
2023/12/02 05:28:44;;;;;;;57.30;28.50;;;;;;;3.75;78.68;99983.89;107576;1252;99206;-61
2023/12/02 05:31:12;;;;;;;53.20;28.20;;;;;;;3.72;78.48;99987.70;107594;1253;99080;-61
2023/12/02 05:33:41;;;;;;;51.60;27.90;;;;;;;3.67;78.63;99997.77;107608;1253;112929;-61
2023/12/02 05:36:10;;;;;;;52.00;27.90;;;;;;;3.62;78.72;100004.31;107532;1253;109192;-61
2023/12/02 05:38:39;;;;;;;47.20;26.40;;;;;;;3.59;78.77;100000.95;107599;1251;108280;-60
2023/12/02 05:41:07;;;;;;;54.70;26.00;;;;;;;3.56;78.51;99987.20;107617;1253;99184;-60
2023/12/02 05:43:35;;;;;;;50.20;26.20;;;;;;;3.52;78.55;99982.21;107618;1253;98925;-62
2023/12/02 05:46:06;;;;;;;54.80;26.70;;;;;;;3.48;78.84;99968.81;107566;1253;112777;-62
2023/12/02 05:48:34;;;;;;;46.70;25.60;;;;;;;3.48;78.78;99965.29;107649;1253;109019;-61
2023/12/02 05:51:04;;;;;;;50.90;27.40;;;;;;;3.48;79.14;99956.55;107598;1254;107955;-62
2023/12/02 05:53:32;;;;;;;55.00;28.90;;;;;;;3.49;79.24;99949.08;107502;1253;99717;-59
2023/12/02 05:56:00;;;;;;;62.30;33.10;;;;;;;3.49;79.42;99959.70;107550;1252;99082;-61
2023/12/02 05:58:30;;;;;;;53.10;28.60;;;;;;;3.51;79.56;99965.88;107523;1253;113126;-60
2023/12/02 06:00:58;;;;;;;50.30;26.70;;;;;;;3.55;79.58;99974.69;107594;1253;109235;-60
2023/12/02 06:03:27;;;;;;;50.00;26.60;;;;;;;3.61;79.94;99971.45;107563;1253;108049;-62
2023/12/02 06:05:56;;;;;;;50.00;27.60;;;;;;;3.66;80.11;99964.01;107543;1253;99176;-61
2023/12/02 06:08:24;;;;;;;65.20;29.10;;;;;;;3.70;80.21;99955.17;107525;1253;99717;-60
2023/12/02 06:10:56;;;;;;;53.10;27.80;;;;;;;3.71;80.19;99951.05;107644;1253;113668;-61
2023/12/02 06:13:24;;;;;;;57.30;28.90;;;;;;;3.71;80.14;99947.85;107567;1253;108725;-60
2023/12/02 06:15:53;;;;;;;52.50;27.90;;;;;;;3.72;80.22;99952.20;107573;1253;108161;-60
2023/12/02 06:18:22;;;;;;;49.40;25.50;;;;;;;3.73;80.40;99976.39;107535;1252;99256;-61
2023/12/02 06:20:50;;;;;;;50.10;26.10;;;;;;;3.75;80.31;99992.77;107597;1253;99816;-62
2023/12/02 06:23:18;;;;;;;49.70;26.00;;;;;;;3.81;80.36;99986.52;107585;1253;113550;-62
2023/12/02 06:25:46;;;;;;;54.50;27.00;;;;;;;3.82;80.48;99980.02;107551;1253;109800;-61
2023/12/02 06:28:15;;;;;;;53.20;27.70;;;;;;;3.79;80.17;99984.10;107532;1253;108663;-61
2023/12/02 06:30:44;;;;;;;54.90;28.20;;;;;;;3.83;80.59;99990.78;107571;1251;99232;-61
2023/12/02 06:33:12;;;;;;;59.80;28.60;;;;;;;3.91;80.92;99984.17;107589;1251;99727;-61
2023/12/02 06:35:41;;;;;;;56.80;28.60;;;;;;;3.97;80.61;99976.83;107603;1256;111938;-61
2023/12/02 06:38:10;;;;;;;52.60;28.00;;;;;;;4.02;80.37;99967.20;107563;1251;109453;-60
2023/12/02 06:40:39;;;;;;;49.50;26.00;;;;;;;4.06;80.51;99967.95;107560;1252;108531;-60
2023/12/02 06:43:08;;;;;;;49.00;26.40;;;;;;;4.12;80.47;99968.77;107526;1253;99182;-63
2023/12/02 06:45:36;;;;;;;52.90;25.90;;;;;;;4.15;80.21;99960.93;107533;1256;100578;-61
2023/12/02 06:48:05;;;;;;;52.50;27.50;;;;;;;4.13;79.79;99953.06;107555;1253;112259;-61
2023/12/02 06:50:33;;;;;;;50.30;26.30;;;;;;;4.07;79.60;99954.23;107545;1253;109926;-60
2023/12/02 06:53:02;;;;;;;53.30;28.40;;;;;;;4.01;79.58;99959.09;107529;1251;107845;-61
2023/12/02 06:55:33;;;;;;;69.30;35.60;;;;;;;4.02;79.73;99962.06;107552;1254;99205;-61
2023/12/02 06:58:01;;;;;;;63.70;31.90;;;;;;;4.05;80.01;99963.81;107544;1255;99727;-61
2023/12/02 07:00:30;;;;;;;60.00;29.10;;;;;;;4.10;80.27;99973.70;107550;1253;113544;-60
2023/12/02 07:02:59;;;;;;;55.90;30.60;;;;;;;4.16;80.12;99977.55;107571;1255;109663;-60
2023/12/02 07:05:27;;;;;;;60.30;29.50;;;;;;;4.20;80.21;99969.78;107559;1254;107862;-60
2023/12/02 07:07:56;;;;;;;56.00;28.40;;;;;;;4.25;80.04;99969.79;107535;1253;99069;-61
2023/12/02 07:10:25;;;;;;;61.10;30.70;;;;;;;4.29;80.17;99967.55;107554;1253;99073;-61
2023/12/02 07:12:53;;;;;;;70.10;35.10;;;;;;;4.30;79.93;99962.30;107592;1253;113325;-61
2023/12/02 07:15:21;;;;;;;65.80;33.70;;;;;;;4.28;79.95;99952.54;107610;1253;109620;-61
2023/12/02 07:17:50;;;;;;;75.70;37.70;;;;;;;4.31;79.76;99956.70;107542;1253;107870;-62
2023/12/02 07:20:18;;;;;;;66.60;33.60;;;;;;;4.30;79.58;99962.11;107574;1253;99171;-62
2023/12/02 07:22:47;;;;;;;62.60;32.90;;;;;;;4.29;79.36;99959.85;107563;1251;99068;-60
2023/12/02 07:25:17;;;;;;;86.10;44.10;;;;;;;4.27;79.14;99954.69;107576;1256;112884;-61
2023/12/02 07:27:45;;;;;;;83.00;40.60;;;;;;;4.25;79.15;99957.13;107574;1251;109874;-61
2023/12/02 07:30:14;;;;;;;65.80;34.80;;;;;;;4.25;79.09;99952.16;107546;1253;108730;-61
2023/12/02 07:32:48;;;;;;;88.70;45.40;;;;;;;4.23;78.96;99949.29;107397;1258;99186;-61
2023/12/02 07:35:16;;;;;;;87.40;42.70;;;;;;;4.18;78.99;99948.84;107603;1251;99705;-63
2023/12/02 07:37:47;;;;;;;75.40;36.70;;;;;;;4.15;78.98;99947.66;107606;1251;113692;-60
2023/12/02 07:40:16;;;;;;;74.60;38.30;;;;;;;4.14;78.80;99946.64;107635;1255;109713;-62
2023/12/02 07:42:44;;;;;;;75.20;37.50;;;;;;;4.11;78.59;99944.73;107586;1255;107005;-61
2023/12/02 07:45:13;;;;;;;74.70;36.40;;;;;;;4.08;78.63;99943.34;107630;1252;99262;-62
2023/12/02 07:47:41;;;;;;;75.00;37.30;;;;;;;4.08;78.78;99947.40;107544;1253;99081;-61
2023/12/02 07:50:10;;;;;;;70.20;35.00;;;;;;;4.10;78.95;99949.42;107585;1253;113287;-61
2023/12/02 07:52:38;;;;;;;82.60;37.00;;;;;;;4.12;79.00;99951.77;107619;1254;108923;-61
2023/12/02 07:55:07;;;;;;;80.20;37.80;;;;;;;4.12;79.26;99950.86;107578;1253;108754;-62
2023/12/02 07:57:36;;;;;;;78.10;37.40;;;;;;;4.13;79.43;99954.13;107563;1251;99217;-61
2023/12/02 08:00:07;;;;;;;77.80;35.20;;;;;;;4.14;79.41;99955.63;107526;1253;99211;-62
2023/12/02 08:02:41;;;;;;;73.10;36.50;;;;;;;4.16;79.54;99955.38;107567;1251;112182;-61
2023/12/02 08:05:10;;;;;;;72.60;35.10;;;;;;;4.21;79.70;99955.17;107603;1253;109992;-60
2023/12/02 08:07:41;;;;;;;62.90;31.20;;;;;;;4.34;80.16;99946.91;107550;1252;108898;-62
2023/12/02 08:10:10;;;;;;;69.80;31.60;;;;;;;4.46;79.99;99945.14;107553;1253;99102;-61
2023/12/02 08:12:39;;;;;;;65.10;33.70;;;;;;;4.55;79.80;99951.38;107576;1254;99174;-60
2023/12/02 08:15:08;;;;;;;69.80;32.40;;;;;;;4.55;79.86;99947.60;107658;1254;112646;-62
2023/12/02 08:17:36;;;;;;;70.10;31.60;;;;;;;4.57;79.74;99941.60;107599;1252;109698;-62
2023/12/02 08:20:06;;;;;;;69.50;34.10;;;;;;;4.62;79.95;99947.79;107553;1253;107986;-61
2023/12/02 08:22:35;;;;;;;75.60;35.70;;;;;;;4.73;80.25;99951.92;107475;1257;99225;-62
2023/12/02 08:25:04;;;;;;;70.00;33.70;;;;;;;4.84;80.12;99948.03;107544;1255;99289;-64
2023/12/02 08:27:32;;;;;;;72.30;33.20;;;;;;;4.94;80.27;99942.50;107609;1256;112329;-63
2023/12/02 08:30:01;;;;;;;75.60;34.10;;;;;;;4.99;80.20;99937.14;107525;1253;110041;-63
2023/12/02 08:32:29;;;;;;;69.60;34.20;;;;;;;5.00;79.64;99939.71;107612;1251;107415;-62
2023/12/02 08:34:58;;;;;;;69.30;36.30;;;;;;;5.06;79.74;99932.33;107564;1251;99388;-60
2023/12/02 08:37:26;;;;;;;71.70;34.00;;;;;;;5.16;79.95;99932.79;107506;1253;99191;-61
2023/12/02 08:39:55;;;;;;;68.40;33.60;;;;;;;5.24;79.56;99924.89;107526;1251;113639;-62
2023/12/02 08:42:23;;;;;;;70.00;35.10;;;;;;;5.32;79.64;99922.99;107507;1252;109358;-62
2023/12/02 08:44:52;;;;;;;79.90;35.10;;;;;;;5.37;79.00;99904.13;107533;1251;107802;-61
2023/12/02 08:47:21;;;;;;;79.30;37.10;;;;;;;5.37;78.98;99898.63;107518;1253;99408;-60
2023/12/02 08:49:49;;;;;;;89.10;36.60;;;;;;;5.42;79.11;99905.64;107467;1256;99100;-60
2023/12/02 08:52:18;;;;;;;80.10;36.80;;;;;;;5.46;78.86;99914.52;107648;1253;111897;-61
2023/12/02 08:54:46;;;;;;;68.60;34.70;;;;;;;5.43;78.72;99925.27;107564;1251;108530;-61
2023/12/02 08:57:14;;;;;;;74.60;35.20;;;;;;;5.38;78.40;99928.05;107615;1251;108130;-60
2023/12/02 08:59:43;;;;;;;74.60;38.80;;;;;;;5.31;78.04;99913.59;107578;1253;99191;-62
2023/12/02 09:02:12;;;;;;;65.50;33.90;;;;;;;5.29;78.03;99893.21;107588;1251;99197;-62
2023/12/02 09:04:40;;;;;;;76.60;35.50;;;;;;;5.24;77.86;99890.19;107615;1256;112457;-61
2023/12/02 09:07:09;;;;;;;67.30;33.40;;;;;;;5.21;77.76;99894.16;107590;1252;110029;-60
2023/12/02 09:09:37;;;;;;;65.10;34.60;;;;;;;5.17;77.63;99889.12;107570;1251;109562;-61
2023/12/02 09:12:06;;;;;;;64.90;35.30;;;;;;;5.16;77.80;99876.56;107550;1256;99170;-60
2023/12/02 09:14:34;;;;;;;77.90;38.40;;;;;;;5.14;77.66;99870.17;107628;1255;99188;-61
2023/12/02 09:17:04;;;;;;;76.10;37.10;;;;;;;5.11;77.87;99874.89;107556;1251;113864;-62
2023/12/02 09:19:41;;;;;;;75.20;38.30;;;;;;;5.09;78.04;99876.81;107558;1254;110025;-65
2023/12/02 09:22:48;;;;;;;78.00;38.50;;;;;;;5.07;77.79;99881.74;107650;1255;106886;-62
2023/12/02 09:25:28;;;;;;;81.60;35.50;;;;;;;5.08;78.04;99887.90;107538;1254;99282;-60
2023/12/02 09:28:06;;;;;;;66.70;33.60;;;;;;;5.11;78.06;99886.04;107568;1251;99707;-61
2023/12/02 09:30:39;;;;;;;62.40;33.10;;;;;;;5.17;78.15;99882.94;107623;1251;112655;-61
2023/12/02 09:33:08;;;;;;;67.40;32.00;;;;;;;5.17;78.48;99878.80;107616;1256;110052;-61
2023/12/02 09:35:36;;;;;;;62.70;32.40;;;;;;;5.16;78.46;99876.39;107622;1251;108769;-61
2023/12/02 09:38:04;;;;;;;62.60;33.30;;;;;;;5.18;78.58;99868.48;107562;1254;99057;-60
2023/12/02 09:40:50;;;;;;;65.10;33.80;;;;;;;5.21;78.73;99858.23;107583;1251;99172;-62
2023/12/02 09:43:25;;;;;;;64.10;32.30;;;;;;;5.31;79.07;99862.94;107621;1257;113676;-60
2023/12/02 09:46:26;;;;;;;64.10;32.70;;;;;;;5.41;79.15;99850.81;107601;1251;108761;-61
2023/12/02 09:49:13;;;;;;;65.80;34.10;;;;;;;5.52;79.00;99859.33;107552;1251;107100;-61
2023/12/02 09:52:00;;;;;;;63.40;30.40;;;;;;;5.60;78.95;99871.98;107504;1255;99206;-61
2023/12/02 09:54:58;;;;;;;61.20;32.30;;;;;;;5.61;78.23;99860.84;107555;1256;99190;-60
2023/12/02 09:57:29;;;;;;;59.80;32.70;;;;;;;5.58;78.02;99850.30;107286;1251;112112;-61
2023/12/02 10:00:20;;;;;;;61.20;30.90;;;;;;;5.61;78.38;99844.65;107549;1251;109812;-60
2023/12/02 10:03:17;;;;;;;62.00;30.50;;;;;;;5.62;78.07;99838.55;107598;1251;109437;-63
2023/12/02 10:05:46;;;;;;;63.60;33.10;;;;;;;5.64;78.07;99824.52;107549;1256;99246;-61
2023/12/02 10:08:35;;;;;;;59.30;30.00;;;;;;;5.68;78.60;99814.05;107594;1257;99701;-60
2023/12/02 10:11:07;;;;;;;54.00;28.70;;;;;;;5.80;78.77;99822.70;107573;1256;112746;-61
2023/12/02 10:13:45;;;;;;;52.30;30.80;;;;;;;5.86;78.18;99823.27;107214;1257;451305;-60
2023/12/02 10:16:15;;;;;;;51.70;29.90;;;;;;;5.97;78.76;99823.96;107638;1256;109067;-61
2023/12/02 10:18:57;;;;;;;57.10;32.70;;;;;;;6.08;78.90;99818.75;107497;1251;99169;-61
2023/12/02 10:21:29;;;;;;;65.20;35.00;;;;;;;6.22;78.51;99814.54;107502;1256;99717;-62
2023/12/02 10:24:02;;;;;;;60.20;35.00;;;;;;;6.31;78.01;99812.75;107598;1251;112025;-62
2023/12/02 10:26:58;;;;;;;66.90;37.00;;;;;;;6.38;77.76;99799.10;107506;1255;110504;-61
2023/12/02 10:29:35;;;;;;;74.10;38.50;;;;;;;6.44;77.36;99781.16;107575;1256;107615;-62
2023/12/02 10:32:12;;;;;;;118.70;71.80;;;;;;;6.44;76.95;99788.33;107582;1256;99181;-63
2023/12/02 10:34:59;;;;;;;74.80;42.80;;;;;;;6.43;76.90;99784.05;107616;1257;99198;-66
2023/12/02 10:37:40;;;;;;;76.70;41.70;;;;;;;6.42;76.67;99779.20;107590;1254;112362;-62
2023/12/02 10:40:11;;;;;;;69.90;39.70;;;;;;;6.41;76.57;99775.73;107532;1251;109769;-61
2023/12/02 10:42:59;;;;;;;70.70;38.00;;;;;;;6.40;76.61;99777.54;107599;1254;108231;-61
2023/12/02 10:45:30;;;;;;;65.50;36.50;;;;;;;6.40;76.35;99786.65;107636;1251;99164;-60
2023/12/02 10:48:02;;;;;;;70.90;36.10;;;;;;;6.41;76.39;99795.88;107586;1251;99216;-60
2023/12/02 10:50:31;;;;;;;62.10;33.30;;;;;;;6.41;75.81;99790.31;107572;1251;112455;-61
2023/12/02 10:53:04;;;;;;;62.90;35.80;;;;;;;6.38;75.75;99787.34;107550;1251;109996;-60
2023/12/02 10:55:37;;;;;;;71.20;35.50;;;;;;;6.34;75.63;99772.27;107543;1254;106971;-61
2023/12/02 10:58:07;;;;;;;66.20;35.00;;;;;;;6.32;75.58;99756.70;107580;1255;99754;-61
2023/12/02 11:00:38;;;;;;;66.50;34.90;;;;;;;6.34;75.99;99752.96;107466;1257;99357;-64
2023/12/02 11:03:15;;;;;;;61.50;35.30;;;;;;;6.36;76.09;99749.29;107614;1251;113401;-62
2023/12/02 11:06:05;;;;;;;60.40;31.80;;;;;;;6.32;75.87;99736.23;107597;1255;109552;-64
2023/12/02 11:08:34;;;;;;;64.70;34.70;;;;;;;6.30;76.12;99731.86;107588;1253;108796;-60
2023/12/02 11:11:07;;;;;;;61.70;35.40;;;;;;;6.32;76.57;99724.35;107347;1258;99277;-61
2023/12/02 11:13:36;;;;;;;65.40;33.40;;;;;;;6.36;76.79;99718.64;107652;1251;99198;-62
2023/12/02 11:16:33;;;;;;;60.10;33.10;;;;;;;6.36;76.73;99712.20;107571;1251;113622;-62
2023/12/02 11:19:59;;;;;;;67.10;33.50;;;;;;;6.41;76.92;99706.77;107581;1251;109913;-60
2023/12/02 11:22:37;;;;;;;55.80;30.60;;;;;;;6.52;77.31;99689.97;107204;1251;108770;-60
2023/12/02 11:25:24;;;;;;;57.30;32.10;;;;;;;6.60;77.30;99693.35;107667;1251;100318;-61